Time;durP1;ratioP1;P1;durP2;ratioP2;P2;SDS_P1;SDS_P2;PMS_P1;PMS_P2;Temp;Humidity;BMP_temperature;BMP_pressure;BME280_temperature;BME280_humidity;BME280_pressure;Samples;Min_cycle;Max_cycle;Signal;HPM_P1;HPM_P2
2021/11/11 00:00:38;;;;;;;;;;;20.90;62.20;;;;;;5012458;28;1390;-70
2021/11/11 00:03:04;;;;;;;;;;;20.90;62.20;;;;;;4995254;28;1312;-71
2021/11/11 00:05:29;;;;;;;;;;;20.90;62.20;;;;;;5012662;28;1375;-70
2021/11/11 00:07:55;;;;;;;;;;;20.90;62.30;;;;;;5010984;28;1378;-69
2021/11/11 00:10:20;;;;;;;;;;;20.90;62.20;;;;;;5027333;28;1903;-70
2021/11/11 00:12:46;;;;;;;;;;;20.90;62.30;;;;;;5011684;28;1403;-70
2021/11/11 00:15:12;;;;;;;;;;;20.90;62.30;;;;;;5019860;28;1109;-70
2021/11/11 00:17:37;;;;;;;;;;;20.90;62.30;;;;;;5024643;28;1338;-70
2021/11/11 00:20:04;;;;;;;;;;;20.90;63.10;;;;;;5016295;28;1299;-70
2021/11/11 00:22:29;;;;;;;;;;;20.90;62.40;;;;;;5016382;28;1255;-70
2021/11/11 00:24:55;;;;;;;;;;;20.90;62.30;;;;;;5016392;28;1302;-70
2021/11/11 00:27:20;;;;;;;;;;;20.90;62.40;;;;;;5016194;28;1259;-70
2021/11/11 00:29:45;;;;;;;;;;;20.90;62.40;;;;;;5016134;28;1347;-70
2021/11/11 00:32:11;;;;;;;;;;;20.90;62.40;;;;;;5015700;28;1902;-70
2021/11/11 00:34:37;;;;;;;;;;;20.80;62.30;;;;;;5016331;28;1374;-70
2021/11/11 00:37:02;;;;;;;;;;;20.80;62.40;;;;;;5015474;28;1387;-70
2021/11/11 00:39:27;;;;;;;;;;;20.80;62.40;;;;;;5014803;28;1331;-70
2021/11/11 00:41:53;;;;;;;;;;;20.90;62.50;;;;;;5015705;28;1304;-70
2021/11/11 00:44:18;;;;;;;;;;;20.90;62.50;;;;;;5016024;28;1131;-70
2021/11/11 00:46:44;;;;;;;;;;;20.80;62.50;;;;;;5015755;28;1425;-70
2021/11/11 00:49:09;;;;;;;;;;;20.80;62.40;;;;;;5015839;28;1399;-70
2021/11/11 00:51:35;;;;;;;;;;;20.80;62.50;;;;;;5015394;28;1922;-70
2021/11/11 00:54:00;;;;;;;;;;;20.80;62.50;;;;;;5014631;28;1367;-70
2021/11/11 00:56:27;;;;;;;;;;;20.80;62.50;;;;;;5015714;28;1271;-70
2021/11/11 00:58:52;;;;;;;;;;;20.80;62.50;;;;;;5015668;28;1305;-70
2021/11/11 01:01:18;;;;;;;;;;;20.80;62.50;;;;;;5015177;28;1289;-70
2021/11/11 01:03:44;;;;;;;;;;;20.80;62.50;;;;;;5015854;28;1324;-69
2021/11/11 01:06:09;;;;;;;;;;;20.80;62.60;;;;;;5015405;28;1111;-71
2021/11/11 01:08:35;;;;;;;;;;;20.80;62.50;;;;;;5015471;28;1392;-70
2021/11/11 01:11:01;;;;;;;;;;;20.80;62.60;;;;;;5013804;28;1967;-70
2021/11/11 01:13:26;;;;;;;;;;;20.80;62.60;;;;;;5014050;28;1096;-69
2021/11/11 01:15:51;;;;;;;;;;;20.80;62.60;;;;;;5023239;28;1218;-70
2021/11/11 01:18:17;;;;;;;;;;;20.80;62.60;;;;;;5017790;28;1279;-70
2021/11/11 01:20:42;;;;;;;;;;;20.80;63.40;;;;;;5014671;28;1204;-70
2021/11/11 01:23:08;;;;;;;;;;;20.70;62.60;;;;;;5014563;28;1201;-70
2021/11/11 01:25:35;;;;;;;;;;;20.80;62.70;;;;;;5013235;28;1155;-70
2021/11/11 01:28:00;;;;;;;;;;;20.80;62.70;;;;;;5031006;28;1273;-70
2021/11/11 01:30:25;;;;;;;;;;;20.80;62.80;;;;;;5014939;28;1910;-69
2021/11/11 01:32:51;;;;;;;;;;;20.80;62.80;;;;;;5014945;28;1295;-70
2021/11/11 01:35:16;;;;;;;;;;;20.80;62.70;;;;;;5014846;28;1280;-70
2021/11/11 01:37:44;;;;;;;;;;;20.70;62.70;;;;;;5013519;28;1284;-70
2021/11/11 01:40:09;;;;;;;;;;;20.70;62.70;;;;;;5030130;28;1557;-70
2021/11/11 01:42:42;;;;;;;;;;;20.70;62.70;;;;;;5014327;28;1311;-70
2021/11/11 01:45:07;;;;;;;;;;;20.70;62.70;;;;;;5013582;28;1297;-70
2021/11/11 01:47:33;;;;;;;;;;;20.70;62.70;;;;;;5029958;28;1304;-71
2021/11/11 01:49:58;;;;;;;;;;;20.70;62.70;;;;;;5014797;28;1254;-70
2021/11/11 01:52:25;;;;;;;;;;;20.70;62.70;;;;;;5027776;28;1910;-70
2021/11/11 01:54:51;;;;;;;;;;;20.70;62.80;;;;;;5015011;28;1328;-70
2021/11/11 01:57:16;;;;;;;;;;;20.70;62.80;;;;;;5014093;28;1302;-70
2021/11/11 01:59:42;;;;;;;;;;;20.70;62.80;;;;;;5013490;28;1081;-70
2021/11/11 02:02:08;;;;;;;;;;;20.70;62.80;;;;;;5012970;28;1273;-70
2021/11/11 02:04:33;;;;;;;;;;;20.70;62.80;;;;;;5014496;28;1219;-70
2021/11/11 02:06:59;;;;;;;;;;;20.70;62.80;;;;;;5014266;28;1271;-70
2021/11/11 02:09:24;;;;;;;;;;;20.70;62.80;;;;;;5013287;28;1116;-70
2021/11/11 02:11:50;;;;;;;;;;;20.70;62.80;;;;;;5013655;28;1960;-70
2021/11/11 02:14:15;;;;;;;;;;;20.70;62.80;;;;;;5013123;28;1310;-69
2021/11/11 02:16:41;;;;;;;;;;;20.70;62.90;;;;;;5027310;28;1292;-70
2021/11/11 02:19:08;;;;;;;;;;;20.70;62.90;;;;;;5014219;28;953;-70
2021/11/11 02:21:34;;;;;;;;;;;20.70;62.90;;;;;;5013524;28;1414;-70
2021/11/11 02:24:00;;;;;;;;;;;20.60;62.90;;;;;;5014213;28;1339;-70
2021/11/11 02:26:25;;;;;;;;;;;20.70;62.90;;;;;;5013915;28;1722;-70
2021/11/11 02:28:51;;;;;;;;;;;20.70;62.90;;;;;;5014023;28;1681;-70
2021/11/11 02:31:17;;;;;;;;;;;20.70;62.90;;;;;;5013675;28;1918;-70
2021/11/11 02:33:50;;;;;;;;;;;20.70;62.90;;;;;;5014239;28;1610;-70
2021/11/11 02:36:15;;;;;;;;;;;20.70;62.90;;;;;;5012193;28;1651;-69
2021/11/11 02:38:41;;;;;;;;;;;20.70;62.80;;;;;;5014277;28;1623;-69
2021/11/11 02:41:06;;;;;;;;;;;20.70;62.80;;;;;;5013352;28;1355;-70
2021/11/11 02:43:32;;;;;;;;;;;20.60;62.80;;;;;;5028983;28;1247;-70
2021/11/11 02:45:57;;;;;;;;;;;20.70;62.80;;;;;;5013758;28;1302;-70
2021/11/11 02:48:23;;;;;;;;;;;20.70;62.80;;;;;;5013750;28;1291;-70
2021/11/11 02:50:48;;;;;;;;;;;20.70;62.90;;;;;;5011679;28;1904;-69
2021/11/11 02:53:14;;;;;;;;;;;20.70;62.80;;;;;;5013159;28;1229;-69
2021/11/11 02:55:40;;;;;;;;;;;20.70;62.80;;;;;;5012151;28;1289;-69
2021/11/11 02:58:05;;;;;;;;;;;20.60;62.80;;;;;;5010864;28;1377;-69
2021/11/11 03:00:32;;;;;;;;;;;20.70;62.80;;;;;;5013034;28;1279;-70
2021/11/11 03:02:57;;;;;;;;;;;20.60;62.80;;;;;;5012964;28;1240;-69
2021/11/11 03:05:23;;;;;;;;;;;20.70;62.90;;;;;;5013278;28;1394;-69
2021/11/11 03:07:49;;;;;;;;;;;20.70;62.90;;;;;;5012899;28;1370;-69
2021/11/11 03:10:16;;;;;;;;;;;20.70;62.90;;;;;;5011584;28;1304;-69
2021/11/11 03:12:42;;;;;;;;;;;20.60;62.80;;;;;;5012496;28;1906;-68
2021/11/11 03:15:07;;;;;;;;;;;20.60;62.80;;;;;;5019994;28;1173;-69
2021/11/11 03:17:33;;;;;;;;;;;20.70;62.90;;;;;;5012783;28;1291;-70
2021/11/11 03:19:58;;;;;;;;;;;20.70;62.90;;;;;;5012789;28;1316;-70
2021/11/11 03:22:24;;;;;;;;;;;20.60;63.60;;;;;;5011276;28;1180;-70
2021/11/11 03:24:50;;;;;;;;;;;20.70;62.90;;;;;;5012653;28;1204;-70
2021/11/11 03:27:16;;;;;;;;;;;20.70;62.90;;;;;;5012893;28;1330;-69
2021/11/11 03:29:41;;;;;;;;;;;20.70;63.00;;;;;;5012791;28;1296;-69
2021/11/11 03:32:07;;;;;;;;;;;20.60;62.90;;;;;;5012657;28;1902;-69
2021/11/11 03:34:32;;;;;;;;;;;20.60;62.90;;;;;;5012179;28;1165;-69
2021/11/11 03:36:58;;;;;;;;;;;20.60;62.90;;;;;;5011140;28;1306;-69
2021/11/11 03:39:24;;;;;;;;;;;20.60;62.90;;;;;;5011191;28;1310;-69
2021/11/11 03:41:50;;;;;;;;;;;20.60;62.90;;;;;;5012807;28;1469;-68
2021/11/11 03:44:18;;;;;;;;;;;20.60;62.90;;;;;;5034772;28;1328;-69
2021/11/11 03:46:44;;;;;;;;;;;20.60;62.90;;;;;;5011652;28;1326;-69
2021/11/11 03:49:09;;;;;;;;;;;20.60;63.00;;;;;;5015402;28;1314;-70
2021/11/11 03:51:35;;;;;;;;;;;20.60;63.00;;;;;;5016172;28;1902;-70
2021/11/11 03:54:01;;;;;;;;;;;20.60;63.00;;;;;;5016547;28;1271;-69
2021/11/11 03:56:26;;;;;;;;;;;20.60;63.00;;;;;;5016476;28;1301;-69
2021/11/11 03:58:52;;;;;;;;;;;20.60;63.00;;;;;;5016538;28;1405;-69
2021/11/11 04:01:17;;;;;;;;;;;20.60;63.00;;;;;;5016133;28;1321;-70
2021/11/11 04:03:43;;;;;;;;;;;20.60;63.00;;;;;;5016395;28;1325;-69
2021/11/11 04:06:08;;;;;;;;;;;20.60;63.00;;;;;;5016481;28;1325;-70
2021/11/11 04:08:34;;;;;;;;;;;20.60;63.00;;;;;;5015982;28;1467;-69
2021/11/11 04:11:00;;;;;;;;;;;20.60;63.10;;;;;;5016545;28;1953;-69
2021/11/11 04:13:25;;;;;;;;;;;20.60;63.10;;;;;;5017139;28;1321;-69
2021/11/11 04:15:51;;;;;;;;;;;20.60;63.00;;;;;;5017158;28;1429;-70
2021/11/11 04:18:16;;;;;;;;;;;20.60;63.10;;;;;;5015964;28;1684;-70
2021/11/11 04:20:42;;;;;;;;;;;20.60;63.80;;;;;;5016037;28;1491;-71
2021/11/11 04:23:07;;;;;;;;;;;20.50;63.00;;;;;;5015721;28;1344;-70
2021/11/11 04:25:47;;;;;;;;;;;20.60;63.10;;;;;;5014935;28;1266;-70
2021/11/11 04:28:24;;;;;;;;;;;20.60;63.10;;;;;;5014474;28;1340;-68
2021/11/11 04:30:53;;;;;;;;;;;20.60;63.10;;;;;;5023658;28;1898;-69
2021/11/11 04:33:19;;;;;;;;;;;20.60;63.20;;;;;;5014718;28;1388;-69
2021/11/11 04:35:49;;;;;;;;;;;20.50;63.10;;;;;;5022611;28;2012;-69
2021/11/11 04:38:28;;;;;;;;;;;20.60;63.10;;;;;;5036571;28;1281;-67
2021/11/11 04:43:58;;;;;;;;;;;20.50;63.10;;;;;;5016174;28;1269;-69
2021/11/11 04:49:18;;;;;;;;;;;20.50;63.10;;;;;;5016606;28;1326;-69
2021/11/11 05:00:07;;;;;;;;;;;20.50;63.10;;;;;;5026768;28;1104;-70
2021/11/11 05:02:53;;;;;;;;;;;20.50;63.10;;;;;;5009086;28;1037;-70
2021/11/11 05:05:18;;;;;;;;;;;20.50;63.10;;;;;;5018269;28;1300;-69
2021/11/11 05:07:44;;;;;;;;;;;20.50;63.00;;;;;;5014164;28;2041;-69
2021/11/11 05:10:10;;;;;;;;;;;20.60;63.00;;;;;;5015980;28;1819;-68
2021/11/11 05:12:35;;;;;;;;;;;20.60;62.90;;;;;;5010909;28;1883;-68
2021/11/11 05:15:01;;;;;;;;;;;20.60;62.80;;;;;;5017524;28;1216;-69
2021/11/11 05:17:26;;;;;;;;;;;20.60;62.70;;;;;;5025799;28;1322;-68
2021/11/11 05:19:52;;;;;;;;;;;20.70;62.60;;;;;;5015364;28;1370;-68
2021/11/11 05:22:17;;;;;;;;;;;20.70;62.50;;;;;;5014869;28;1324;-68
2021/11/11 05:24:43;;;;;;;;;;;20.70;62.40;;;;;;5015061;28;1358;-68
2021/11/11 05:27:11;;;;;;;;;;;20.70;62.30;;;;;;5015152;28;1271;-67
2021/11/11 05:29:36;;;;;;;;;;;20.80;62.30;;;;;;5014290;28;1328;-67
2021/11/11 05:32:02;;;;;;;;;;;20.80;62.20;;;;;;5014561;28;1977;-67
2021/11/11 05:34:27;;;;;;;;;;;20.80;62.10;;;;;;5015315;28;1274;-67
2021/11/11 05:36:53;;;;;;;;;;;20.80;62.10;;;;;;5014611;28;1263;-67
2021/11/11 05:39:18;;;;;;;;;;;20.90;62.10;;;;;;5015246;28;1313;-68
2021/11/11 05:41:44;;;;;;;;;;;20.80;61.90;;;;;;5015030;28;1417;-68
2021/11/11 05:44:09;;;;;;;;;;;20.90;61.90;;;;;;5014885;28;1243;-66
2021/11/11 05:46:35;;;;;;;;;;;20.90;61.80;;;;;;5023213;28;1389;-66
2021/11/11 05:49:00;;;;;;;;;;;20.90;61.80;;;;;;5019044;28;1399;-69
2021/11/11 05:51:25;;;;;;;;;;;20.90;61.80;;;;;;5014351;28;1909;-67
2021/11/11 05:53:51;;;;;;;;;;;20.90;61.70;;;;;;5014544;28;1323;-67
2021/11/11 05:56:16;;;;;;;;;;;20.90;61.70;;;;;;5014794;28;1305;-66
2021/11/11 05:58:42;;;;;;;;;;;20.90;61.60;;;;;;5028077;28;1274;-68
2021/11/11 06:01:07;;;;;;;;;;;20.90;62.40;;;;;;5013958;28;1425;-67
2021/11/11 06:03:33;;;;;;;;;;;20.90;61.60;;;;;;5014575;28;1248;-69
2021/11/11 06:05:58;;;;;;;;;;;20.90;61.60;;;;;;5022505;28;1056;-68
2021/11/11 06:08:24;;;;;;;;;;;20.90;61.60;;;;;;5020053;28;1292;-68
2021/11/11 06:10:49;;;;;;;;;;;20.90;61.60;;;;;;5013409;28;1898;-68
2021/11/11 06:13:14;;;;;;;;;;;20.90;61.50;;;;;;5014279;28;1478;-69
2021/11/11 06:15:40;;;;;;;;;;;21.00;61.60;;;;;;5021816;28;1265;-68
2021/11/11 06:18:06;;;;;;;;;;;21.00;62.30;;;;;;5020014;28;1308;-68
2021/11/11 06:20:33;;;;;;;;;;;21.00;61.50;;;;;;5014148;28;1271;-69
2021/11/11 06:22:58;;;;;;;;;;;21.00;61.50;;;;;;5013853;28;1290;-67
2021/11/11 06:25:24;;;;;;;;;;;21.00;61.50;;;;;;5013051;28;1397;-68
2021/11/11 06:27:49;;;;;;;;;;;21.00;61.50;;;;;;5012907;28;1325;-68
2021/11/11 06:30:15;;;;;;;;;;;21.00;61.50;;;;;;5013953;28;1131;-69
2021/11/11 06:32:40;;;;;;;;;;;21.00;61.50;;;;;;5012339;28;1898;-70
2021/11/11 06:35:07;;;;;;;;;;;21.00;61.50;;;;;;5014026;28;1052;-70
2021/11/11 06:37:33;;;;;;;;;;;21.00;61.40;;;;;;5013582;28;1347;-70
2021/11/11 06:39:59;;;;;;;;;;;21.00;61.40;;;;;;5007640;28;2196;-69
2021/11/11 06:42:24;;;;;;;;;;;21.00;61.40;;;;;;5013237;28;1110;-70
2021/11/11 06:44:50;;;;;;;;;;;21.00;61.40;;;;;;5013554;28;1249;-69
2021/11/11 06:47:15;;;;;;;;;;;21.00;61.40;;;;;;5013615;28;1310;-70
2021/11/11 06:49:40;;;;;;;;;;;21.00;61.40;;;;;;4996121;28;1044;-70
2021/11/11 06:52:06;;;;;;;;;;;21.00;61.40;;;;;;5013260;28;1959;-70
2021/11/11 06:54:32;;;;;;;;;;;21.00;61.40;;;;;;5012533;28;1265;-68
2021/11/11 06:56:57;;;;;;;;;;;21.00;61.30;;;;;;5012259;28;2023;-69
2021/11/11 06:59:22;;;;;;;;;;;21.00;61.30;;;;;;5013484;28;1352;-68
2021/11/11 07:01:48;;;;;;;;;;;21.00;61.30;;;;;;5013157;28;1355;-67
2021/11/11 07:04:13;;;;;;;;;;;21.00;61.30;;;;;;5013565;28;1263;-69
2021/11/11 07:06:39;;;;;;;;;;;21.00;61.20;;;;;;5012651;28;1333;-68
2021/11/11 07:09:04;;;;;;;;;;;21.00;61.30;;;;;;5012875;28;1071;-68
2021/11/11 07:11:30;;;;;;;;;;;21.00;61.30;;;;;;5011833;28;1906;-68
2021/11/11 07:13:55;;;;;;;;;;;21.00;61.20;;;;;;5013281;28;1255;-68
2021/11/11 07:16:21;;;;;;;;;;;21.00;61.20;;;;;;5015424;28;1319;-69
2021/11/11 07:18:46;;;;;;;;;;;21.00;61.20;;;;;;5013257;28;1678;-67
2021/11/11 07:21:12;;;;;;;;;;;21.00;61.30;;;;;;5012823;28;1331;-67
2021/11/11 07:23:37;;;;;;;;;;;21.00;61.20;;;;;;5011655;28;1346;-67
2021/11/11 07:26:03;;;;;;;;;;;21.00;61.20;;;;;;5013337;28;1393;-67
2021/11/11 07:28:28;;;;;;;;;;;21.00;61.20;;;;;;5013086;28;1321;-68
2021/11/11 07:30:54;;;;;;;;;;;21.00;61.20;;;;;;5012787;28;1967;-67
2021/11/11 07:33:21;;;;;;;;;;;21.00;61.30;;;;;;5013143;28;1341;-69
2021/11/11 07:35:46;;;;;;;;;;;21.00;61.20;;;;;;5012003;28;1534;-69
2021/11/11 07:38:12;;;;;;;;;;;21.00;61.20;;;;;;5011853;28;1375;-67
2021/11/11 07:40:38;;;;;;;;;;;21.10;61.20;;;;;;5013128;28;1350;-67
2021/11/11 07:43:04;;;;;;;;;;;21.10;61.00;;;;;;5012591;28;1260;-67
2021/11/11 07:45:30;;;;;;;;;;;21.20;60.90;;;;;;5024096;28;1156;-69
2021/11/11 07:47:57;;;;;;;;;;;21.20;60.70;;;;;;5013368;28;1406;-69
2021/11/11 07:50:22;;;;;;;;;;;21.20;60.60;;;;;;5011626;28;1298;-68
2021/11/11 07:52:48;;;;;;;;;;;21.30;60.50;;;;;;5012524;28;1981;-69
2021/11/11 07:55:13;;;;;;;;;;;21.40;60.40;;;;;;5013340;28;1286;-68
2021/11/11 07:57:40;;;;;;;;;;;21.50;60.20;;;;;;5027796;28;1306;-68
2021/11/11 08:00:06;;;;;;;;;;;21.50;60.10;;;;;;5012951;28;1282;-70
2021/11/11 08:02:32;;;;;;;;;;;21.60;60.00;;;;;;5012792;28;1352;-69
2021/11/11 08:04:57;;;;;;;;;;;21.70;59.80;;;;;;5011722;28;1391;-69
2021/11/11 08:07:23;;;;;;;;;;;21.80;59.60;;;;;;5012714;28;1403;-69
2021/11/11 08:09:48;;;;;;;;;;;21.90;59.40;;;;;;5011887;28;1232;-69
2021/11/11 08:12:14;;;;;;;;;;;22.00;59.20;;;;;;5012297;28;1903;-69
2021/11/11 08:14:40;;;;;;;;;;;22.00;59.00;;;;;;5011591;28;1372;-69
2021/11/11 08:17:05;;;;;;;;;;;22.10;58.90;;;;;;5025841;28;1330;-69
2021/11/11 08:19:31;;;;;;;;;;;22.20;58.80;;;;;;5011666;28;1495;-69
2021/11/11 08:21:56;;;;;;;;;;;22.20;58.60;;;;;;5012240;28;1393;-69
2021/11/11 08:24:22;;;;;;;;;;;22.30;58.50;;;;;;5012841;28;1375;-68
2021/11/11 08:26:47;;;;;;;;;;;22.30;58.40;;;;;;5012259;28;1387;-66
2021/11/11 08:29:13;;;;;;;;;;;22.30;58.20;;;;;;5012529;28;1275;-67
2021/11/11 08:31:38;;;;;;;;;;;22.40;58.20;;;;;;5012134;28;1970;-67
2021/11/11 08:34:03;;;;;;;;;;;22.40;58.10;;;;;;5013461;28;1374;-66
2021/11/11 08:36:30;;;;;;;;;;;22.50;58.00;;;;;;5016017;28;1329;-68
2021/11/11 08:38:56;;;;;;;;;;;22.50;58.00;;;;;;5024174;23;2183;-70
2021/11/11 08:41:22;;;;;;;;;;;22.50;57.90;;;;;;5006541;28;893;-70
2021/11/11 08:43:47;;;;;;;;;;;22.50;57.90;;;;;;5007553;28;810;-71
2021/11/11 08:46:12;;;;;;;;;;;22.50;57.90;;;;;;5016401;28;1725;-69
2021/11/11 08:48:38;;;;;;;;;;;22.60;58.00;;;;;;5002743;28;1334;-69
2021/11/11 08:51:03;;;;;;;;;;;22.60;58.00;;;;;;4996164;28;1963;-70
2021/11/11 08:53:30;;;;;;;;;;;22.60;58.00;;;;;;4996591;28;1065;-69
2021/11/11 08:55:56;;;;;;;;;;;22.60;58.00;;;;;;4995294;28;1031;-68
2021/11/11 08:58:21;;;;;;;;;;;22.60;58.00;;;;;;4994979;28;1705;-69
2021/11/11 09:00:49;;;;;;;;;;;22.60;58.00;;;;;;4995157;28;1061;-69
2021/11/11 09:03:15;;;;;;;;;;;22.60;57.90;;;;;;4991689;28;1487;-69
2021/11/11 09:05:41;;;;;;;;;;;22.60;57.90;;;;;;4982280;28;1494;-69
2021/11/11 09:08:07;;;;;;;;;;;22.60;57.90;;;;;;4993439;28;1415;-69
2021/11/11 09:10:33;;;;;;;;;;;22.60;57.90;;;;;;4988548;28;1333;-69
2021/11/11 09:12:58;;;;;;;;;;;22.50;57.90;;;;;;4987879;28;1899;-71
2021/11/11 09:15:25;;;;;;;;;;;22.60;57.90;;;;;;4996063;28;1495;-69
2021/11/11 09:17:51;;;;;;;;;;;22.60;58.00;;;;;;4995957;28;1649;-70
2021/11/11 09:20:18;;;;;;;;;;;22.50;57.90;;;;;;5007278;28;1727;-69
2021/11/11 09:22:43;;;;;;;;;;;22.50;58.00;;;;;;4988332;28;1380;-69
2021/11/11 09:25:09;;;;;;;;;;;22.50;58.00;;;;;;4994741;28;1491;-70
2021/11/11 09:27:34;;;;;;;;;;;22.50;58.10;;;;;;4994514;28;1263;-69
2021/11/11 09:30:00;;;;;;;;;;;22.50;58.10;;;;;;5011058;28;1676;-70
2021/11/11 09:32:25;;;;;;;;;;;22.40;58.10;;;;;;4994154;28;1894;-70
2021/11/11 09:34:51;;;;;;;;;;;22.40;58.20;;;;;;4989763;28;1168;-69
2021/11/11 09:37:16;;;;;;;;;;;22.40;58.20;;;;;;4986337;28;1588;-69
2021/11/11 09:39:41;;;;;;;;;;;22.40;58.90;;;;;;4991103;28;1213;-69
2021/11/11 09:42:07;;;;;;;;;;;22.40;58.40;;;;;;4987001;28;1568;-68
2021/11/11 09:44:32;;;;;;;;;;;22.30;58.40;;;;;;4994065;28;1770;-69
2021/11/11 09:46:58;;;;;;;;;;;22.30;58.40;;;;;;5010756;28;1013;-69
2021/11/11 09:49:23;;;;;;;;;;;22.30;58.50;;;;;;4995600;28;1508;-68
2021/11/11 09:51:49;;;;;;;;;;;22.30;58.50;;;;;;5010125;28;1918;-69
2021/11/11 09:59:24;;;;;;;;;;;22.30;58.60;;;;;;5008366;28;777;-70
2021/11/11 10:01:50;;;;;;;;;;;22.30;58.70;;;;;;4992736;28;1498;-71
2021/11/11 10:04:16;;;;;;;;;;;22.20;58.70;;;;;;4995312;28;1284;-71
2021/11/11 10:06:41;;;;;;;;;;;22.20;58.70;;;;;;4995174;28;1153;-70
2021/11/11 10:09:10;;;;;;;;;;;22.30;58.80;;;;;;4991281;28;1416;-70
2021/11/11 10:11:41;;;;;;;;;;;22.30;58.70;;;;;;4991491;28;1902;-70
2021/11/11 10:14:06;;;;;;;;;;;22.30;58.70;;;;;;4991269;28;871;-70
2021/11/11 10:16:35;;;;;;;;;;;22.30;58.70;;;;;;4990187;28;1410;-70
2021/11/11 10:19:01;;;;;;;;;;;22.30;58.70;;;;;;4991864;28;1292;-70
2021/11/11 10:21:46;;;;;;;;;;;22.30;58.70;;;;;;5001028;28;1454;-71
2021/11/11 10:24:14;;;;;;;;;;;22.30;58.70;;;;;;4985950;28;1214;-70
2021/11/11 10:26:42;;;;;;;;;;;22.30;58.70;;;;;;4987781;28;1670;-70
2021/11/11 10:29:30;;;;;;;;;;;22.30;58.70;;;;;;4985728;28;1241;-70
2021/11/11 10:31:56;;;;;;;;;;;22.30;58.70;;;;;;4987823;28;1902;-71
2021/11/11 10:34:22;;;;;;;;;;;22.30;58.80;;;;;;4989085;28;1217;-70
2021/11/11 10:36:48;;;;;;;;;;;22.30;58.70;;;;;;4994634;28;858;-70
2021/11/11 10:39:18;;;;;;;;;;;22.30;58.80;;;;;;4986754;28;1279;-71
2021/11/11 10:41:44;;;;;;;;;;;22.30;58.80;;;;;;4984022;28;1194;-69
2021/11/11 10:44:35;;;;;;;;;;;22.30;58.70;;;;;;4984797;28;1173;-69
2021/11/11 10:47:02;;;;;;;;;;;22.30;58.70;;;;;;4984699;28;1463;-69
2021/11/11 10:49:29;;;;;;;;;;;22.30;58.70;;;;;;5002999;28;1092;-69
2021/11/11 10:51:55;;;;;;;;;;;22.30;58.70;;;;;;4992471;28;1957;-69
2021/11/11 10:54:20;;;;;;;;;;;22.30;58.70;;;;;;4994384;28;1493;-70
2021/11/11 10:56:46;;;;;;;;;;;22.30;58.70;;;;;;4993633;28;1366;-69
2021/11/11 10:59:12;;;;;;;;;;;22.30;58.70;;;;;;4993928;28;1301;-69
2021/11/11 11:01:38;;;;;;;;;;;22.30;58.80;;;;;;4993857;28;780;-69
2021/11/11 11:04:03;;;;;;;;;;;22.20;58.70;;;;;;4993952;28;1191;-70
2021/11/11 11:06:29;;;;;;;;;;;22.20;58.70;;;;;;4992907;28;1372;-71
2021/11/11 11:08:57;;;;;;;;;;;22.20;58.80;;;;;;4989146;28;1344;-70
2021/11/11 11:11:22;;;;;;;;;;;22.20;58.80;;;;;;4993589;28;1964;-69
2021/11/11 11:13:49;;;;;;;;;;;22.20;58.80;;;;;;4993769;28;1163;-70
2021/11/11 11:16:15;;;;;;;;;;;22.20;58.80;;;;;;4993973;28;1078;-69
2021/11/11 11:18:42;;;;;;;;;;;22.20;58.80;;;;;;5008809;28;1236;-69
2021/11/11 11:21:08;;;;;;;;;;;22.20;58.90;;;;;;4993614;28;1037;-70
2021/11/11 11:23:54;;;;;;;;;;;22.20;58.90;;;;;;4973659;28;1204;-70
2021/11/11 11:26:24;;;;;;;;;;;22.20;58.90;;;;;;4989497;28;1680;-71
2021/11/11 11:28:59;;;;;;;;;;;22.20;58.90;;;;;;5008707;28;1733;-71
2021/11/11 11:31:28;;;;;;;;;;;22.20;58.80;;;;;;4993499;28;1957;-70
2021/11/11 11:33:53;;;;;;;;;;;22.30;58.90;;;;;;4992329;28;1704;-71
2021/11/11 11:36:29;;;;;;;;;;;22.20;58.80;;;;;;5009044;28;1306;-70
2021/11/11 11:38:55;;;;;;;;;;;22.30;58.90;;;;;;4990546;28;1361;-70
2021/11/11 11:41:25;;;;;;;;;;;22.30;58.90;;;;;;4989462;28;1370;-70
2021/11/11 11:43:50;;;;;;;;;;;22.30;58.80;;;;;;4979451;28;1298;-70
2021/11/11 11:46:17;;;;;;;;;;;22.30;58.80;;;;;;4993387;28;1708;-70
2021/11/11 11:48:43;;;;;;;;;;;22.30;58.80;;;;;;4993619;28;1316;-70
2021/11/11 11:51:09;;;;;;;;;;;22.30;58.80;;;;;;4993329;28;1959;-70
2021/11/11 11:53:42;;;;;;;;;;;22.30;58.80;;;;;;4993663;28;879;-70
2021/11/11 11:56:36;;;;;;;;;;;22.30;58.70;;;;;;4993859;28;941;-69
2021/11/11 11:59:01;;;;;;;;;;;22.30;58.70;;;;;;4992890;28;1327;-69
2021/11/11 12:01:40;;;;;;;;;;;22.30;58.60;;;;;;4993129;28;1180;-69
2021/11/11 12:06:41;;;;;;;;;;;22.30;58.60;;;;;;4993913;28;994;-69
2021/11/11 12:14:46;;;;;;;;;;;22.30;58.70;;;;;;4988838;28;1658;-70
2021/11/11 12:29:39;;;;;;;;;;;22.30;58.80;;;;;;4984286;28;1273;-70
2021/11/11 12:39:47;;;;;;;;;;;22.30;58.90;;;;;;5006500;28;1561;-71
2021/11/11 12:42:29;;;;;;;;;;;22.30;58.90;;;;;;4996327;28;1375;-70
2021/11/11 12:45:21;;;;;;;;;;;22.30;58.90;;;;;;4984611;28;1711;-70
2021/11/11 12:47:48;;;;;;;;;;;22.30;58.90;;;;;;4996551;28;1732;-71
2021/11/11 12:50:23;;;;;;;;;;;22.30;58.90;;;;;;4996481;28;1193;-71
2021/11/11 12:52:49;;;;;;;;;;;22.30;58.80;;;;;;4996015;28;1902;-70
2021/11/11 12:55:17;;;;;;;;;;;22.30;58.80;;;;;;4995154;28;1308;-70
2021/11/11 12:57:59;;;;;;;;;;;22.30;58.80;;;;;;5010998;28;1619;-70
2021/11/11 13:00:28;;;;;;;;;;;22.30;58.70;;;;;;4995188;28;1680;-71
2021/11/11 13:02:54;;;;;;;;;;;22.40;58.70;;;;;;4995923;28;1149;-71
2021/11/11 13:05:39;;;;;;;;;;;22.40;58.70;;;;;;4996160;28;1663;-71
2021/11/11 13:08:05;;;;;;;;;;;22.40;58.70;;;;;;4993306;28;1351;-70
2021/11/11 13:10:30;;;;;;;;;;;22.40;58.70;;;;;;4994424;28;1708;-70
2021/11/11 13:13:09;;;;;;;;;;;22.40;58.70;;;;;;4995784;28;1883;-71
2021/11/11 13:15:38;;;;;;;;;;;22.40;58.80;;;;;;4994953;28;1714;-70
2021/11/11 13:18:04;;;;;;;;;;;22.40;58.80;;;;;;5011009;28;1671;-70
2021/11/11 13:20:53;;;;;;;;;;;22.30;58.70;;;;;;4994002;28;1344;-70
2021/11/11 13:24:04;;;;;;;;;;;22.30;58.70;;;;;;4994572;28;1470;-71
2021/11/11 13:26:35;;;;;;;;;;;22.30;58.80;;;;;;4995398;28;1280;-70
2021/11/11 14:27:56;;;;;;;;;;;22.10;59.30;;;;;;4994343;28;1574;-70
2021/11/11 14:28:08;;;;;;;;;;;22.00;59.50;;;;;;4994719;28;1272;-70
2021/11/11 15:14:13;;;;;;;;;;;21.80;59.80;;;;;;5016691;28;1371;-68
2021/11/11 15:20:55;;;;;;;;;;;21.80;59.90;;;;;;5002939;28;1410;-69
2021/11/11 15:46:41;;;;;;;;;;;21.70;60.00;;;;;;5004867;28;1085;-70
2021/11/11 15:57:18;;;;;;;;;;;21.70;60.20;;;;;;5031728;28;1275;-69
2021/11/11 16:02:20;;;;;;;;;;;21.70;60.30;;;;;;5028094;28;1568;-68
2021/11/11 16:21:24;;;;;;;;;;;21.60;60.30;;;;;;5018213;28;1313;-69
2021/11/11 16:26:25;;;;;;;;;;;21.60;60.30;;;;;;5027669;28;1297;-72
2021/11/11 16:28:52;;;;;;;;;;;21.60;60.30;;;;;;5031365;28;1413;-71
2021/11/11 16:31:18;;;;;;;;;;;21.60;60.40;;;;;;5013746;28;1961;-72
2021/11/11 16:33:43;;;;;;;;;;;21.60;60.40;;;;;;5020353;28;1295;-71
2021/11/11 16:36:09;;;;;;;;;;;21.60;60.40;;;;;;5016847;28;1119;-69
2021/11/11 16:38:35;;;;;;;;;;;21.60;60.40;;;;;;5028912;28;1270;-71
2021/11/11 16:41:01;;;;;;;;;;;21.60;60.40;;;;;;5030014;28;1278;-71
2021/11/11 16:43:26;;;;;;;;;;;21.60;60.40;;;;;;5028797;28;1421;-70
2021/11/11 16:45:53;;;;;;;;;;;21.60;60.40;;;;;;5029786;28;1430;-70
2021/11/11 16:48:19;;;;;;;;;;;21.60;60.50;;;;;;5019280;28;1315;-70
2021/11/11 16:50:45;;;;;;;;;;;21.60;60.50;;;;;;5026371;28;1191;-69
2021/11/11 16:53:10;;;;;;;;;;;21.60;60.50;;;;;;5020261;28;1961;-69
2021/11/11 16:55:37;;;;;;;;;;;21.60;60.50;;;;;;5016183;28;1156;-70
2021/11/11 16:58:03;;;;;;;;;;;21.50;60.40;;;;;;5014591;28;1381;-70
2021/11/11 17:00:28;;;;;;;;;;;21.50;60.50;;;;;;5014250;28;1120;-71
2021/11/11 17:02:53;;;;;;;;;;;21.50;60.50;;;;;;5010429;28;1236;-70
2021/11/11 17:05:22;;;;;;;;;;;21.50;60.60;;;;;;5002991;28;2424;-70
2021/11/11 17:07:50;;;;;;;;;;;21.50;60.60;;;;;;5028249;28;2155;-70
2021/11/11 17:10:15;;;;;;;;;;;21.50;60.70;;;;;;5012947;28;1144;-70
2021/11/11 17:12:41;;;;;;;;;;;21.50;60.60;;;;;;5012833;28;1926;-69
2021/11/11 17:15:08;;;;;;;;;;;21.50;60.60;;;;;;5006313;28;2077;-70
2021/11/11 17:17:34;;;;;;;;;;;21.50;60.70;;;;;;4997289;28;1087;-70
2021/11/11 17:19:59;;;;;;;;;;;21.50;60.70;;;;;;5023168;28;1383;-70
2021/11/11 17:22:40;;;;;;;;;;;21.50;60.70;;;;;;5015340;28;1588;-70
2021/11/11 17:25:25;;;;;;;;;;;21.50;60.70;;;;;;5006772;28;1229;-70
2021/11/11 17:28:02;;;;;;;;;;;21.50;60.80;;;;;;5002650;28;1314;-70
2021/11/11 17:30:27;;;;;;;;;;;21.50;60.70;;;;;;5013742;28;1329;-70
2021/11/11 17:32:53;;;;;;;;;;;21.50;60.80;;;;;;5012323;28;1894;-70
2021/11/11 17:35:18;;;;;;;;;;;21.50;60.80;;;;;;5023743;28;1252;-71
2021/11/11 17:37:44;;;;;;;;;;;21.50;60.80;;;;;;5013674;28;1345;-71
2021/11/11 17:40:10;;;;;;;;;;;21.40;60.80;;;;;;5013125;28;1284;-70
2021/11/11 17:42:35;;;;;;;;;;;21.50;60.90;;;;;;5012780;28;1307;-71
2021/11/11 17:45:01;;;;;;;;;;;21.40;60.80;;;;;;5021975;28;1284;-71
2021/11/11 17:47:34;;;;;;;;;;;21.40;60.80;;;;;;5033547;28;1356;-70
2021/11/11 17:50:03;;;;;;;;;;;21.40;60.80;;;;;;5047042;28;1702;-71
2021/11/11 17:52:30;;;;;;;;;;;21.40;60.80;;;;;;5005767;28;1906;-71
2021/11/11 17:54:57;;;;;;;;;;;21.40;60.80;;;;;;5003198;28;1284;-69